Time;durP1;ratioP1;P1;durP2;ratioP2;P2;SDS_P1;SDS_P2;PMS_P1;PMS_P2;Temp;Humidity;BMP_temperature;BMP_pressure;BME280_temperature;BME280_humidity;BME280_pressure;Samples;Min_cycle;Max_cycle;Signal;HPM_P1;HPM_P2
2020/12/08 00:02:25;;;;;;;11.88;8.38;;;4.20;92.80;;;;;;4929764;28;20039;-67
2020/12/08 00:04:51;;;;;;;9.50;7.30;;;4.30;92.50;;;;;;4938628;28;20035;-67
2020/12/08 00:07:17;;;;;;;10.00;7.07;;;4.30;92.70;;;;;;4927428;28;20344;-67
2020/12/08 00:09:42;;;;;;;10.80;7.28;;;4.30;92.50;;;;;;4911627;28;20591;-67
2020/12/08 00:12:08;;;;;;;9.07;6.90;;;4.30;92.60;;;;;;4909827;28;20059;-68
2020/12/08 00:14:34;;;;;;;11.35;7.60;;;4.20;92.50;;;;;;4909891;28;20452;-67
2020/12/08 00:17:02;;;;;;;8.45;6.70;;;4.30;92.70;;;;;;4910083;28;20287;-67
2020/12/08 00:19:27;;;;;;;9.80;7.25;;;4.30;92.60;;;;;;4913159;28;20679;-67
2020/12/08 00:21:53;;;;;;;10.57;7.80;;;4.20;92.60;;;;;;4912060;28;20042;-67
2020/12/08 00:24:18;;;;;;;9.55;7.32;;;4.20;92.60;;;;;;4913096;28;20028;-67
2020/12/08 00:26:44;;;;;;;11.48;7.43;;;4.20;92.70;;;;;;4908491;29;20032;-68
2020/12/08 00:29:10;;;;;;;10.30;7.05;;;4.20;92.60;;;;;;4913869;28;20035;-68
2020/12/08 00:31:36;;;;;;;8.70;6.28;;;4.20;92.40;;;;;;4909118;29;20189;-68
2020/12/08 00:34:02;;;;;;;9.68;7.03;;;4.20;92.50;;;;;;4913293;28;20047;-68
2020/12/08 00:36:28;;;;;;;10.40;6.68;;;4.20;92.30;;;;;;4908377;28;20046;-69
2020/12/08 00:38:54;;;;;;;10.85;7.60;;;4.20;92.60;;;;;;4914689;28;20248;-67
2020/12/08 00:41:21;;;;;;;10.32;7.20;;;4.20;92.60;;;;;;4907384;28;20416;-67
2020/12/08 00:43:48;;;;;;;10.35;7.20;;;4.10;92.80;;;;;;4897985;28;20035;-67
2020/12/08 00:46:15;;;;;;;9.85;7.40;;;4.20;92.60;;;;;;4908940;29;20503;-68
2020/12/08 00:48:41;;;;;;;10.40;7.45;;;4.10;92.70;;;;;;4914478;28;20098;-68
2020/12/08 00:51:07;;;;;;;11.68;7.78;;;4.10;92.60;;;;;;4909503;28;20059;-69
2020/12/08 00:53:33;;;;;;;10.70;7.68;;;4.10;92.80;;;;;;4929858;28;20635;-67
2020/12/08 00:55:59;;;;;;;10.57;7.47;;;4.10;92.90;;;;;;4934522;29;20035;-67
2020/12/08 00:58:26;;;;;;;10.15;7.22;;;4.10;93.10;;;;;;4935701;28;20130;-67
2020/12/08 01:00:51;;;;;;;12.07;7.65;;;4.10;93.30;;;;;;4938584;29;20028;-67
2020/12/08 01:03:17;;;;;;;11.43;7.60;;;4.10;93.40;;;;;;4920148;28;20031;-67
2020/12/08 01:05:44;;;;;;;11.68;8.00;;;4.10;93.20;;;;;;4934526;29;20100;-67
2020/12/08 01:08:09;;;;;;;12.48;7.80;;;4.10;93.30;;;;;;4927250;28;20533;-67
2020/12/08 01:10:35;;;;;;;10.43;7.35;;;4.10;93.50;;;;;;4913913;28;20036;-67
2020/12/08 01:13:01;;;;;;;10.38;7.85;;;4.10;93.30;;;;;;4937484;28;20028;-68
2020/12/08 01:15:27;;;;;;;10.75;7.93;;;4.00;93.10;;;;;;4939098;29;20034;-68
2020/12/08 01:17:52;;;;;;;11.00;7.97;;;4.00;93.30;;;;;;4931619;28;20409;-69
2020/12/08 01:20:18;;;;;;;10.65;7.78;;;4.00;93.50;;;;;;4934595;28;20535;-68
2020/12/08 01:22:44;;;;;;;11.57;7.80;;;4.00;93.50;;;;;;4936474;28;20050;-68
2020/12/08 01:25:09;;;;;;;10.95;7.68;;;4.00;93.60;;;;;;4917439;29;20057;-68
2020/12/08 01:27:35;;;;;;;10.00;7.13;;;4.00;93.70;;;;;;4936679;28;20039;-68
2020/12/08 01:30:01;;;;;;;9.70;6.95;;;4.00;93.70;;;;;;4918745;28;20059;-68
2020/12/08 01:32:27;;;;;;;12.23;7.40;;;3.90;93.80;;;;;;4931677;28;20027;-68
2020/12/08 01:34:52;;;;;;;11.27;8.32;;;4.00;93.80;;;;;;4936956;28;20035;-67
2020/12/08 01:37:18;;;;;;;9.45;6.97;;;3.90;93.90;;;;;;4933519;28;20047;-67
2020/12/08 01:39:43;;;;;;;10.13;7.22;;;4.00;93.90;;;;;;4937397;29;20043;-68
2020/12/08 01:42:09;;;;;;;9.90;7.10;;;4.00;93.80;;;;;;4935156;29;20054;-68
2020/12/08 01:44:35;;;;;;;10.55;7.07;;;4.00;93.80;;;;;;4935938;28;20035;-68
2020/12/08 01:47:02;;;;;;;11.20;6.70;;;4.00;94.00;;;;;;4925933;28;20063;-68
2020/12/08 01:49:28;;;;;;;11.75;7.63;;;3.90;94.10;;;;;;4940072;28;20400;-69
2020/12/08 01:51:54;;;;;;;10.90;7.38;;;3.90;94.20;;;;;;4931895;28;20031;-68
2020/12/08 01:54:20;;;;;;;12.65;8.10;;;3.90;94.30;;;;;;4938921;28;20027;-66
2020/12/08 01:56:46;;;;;;;10.20;7.43;;;3.90;94.30;;;;;;4932155;28;20128;-65
2020/12/08 01:59:12;;;;;;;10.13;7.25;;;3.90;93.90;;;;;;4937870;28;20023;-66
2020/12/08 02:01:37;;;;;;;12.10;8.23;;;3.90;94.20;;;;;;4931190;28;20035;-66
2020/12/08 02:04:05;;;;;;;9.95;7.28;;;3.90;94.20;;;;;;4939525;28;20458;-67
2020/12/08 02:06:30;;;;;;;10.43;7.38;;;3.80;94.20;;;;;;4931590;28;20540;-66
2020/12/08 02:08:57;;;;;;;11.45;7.65;;;3.80;94.20;;;;;;4932626;28;20040;-66
2020/12/08 02:11:22;;;;;;;10.00;7.50;;;3.90;94.20;;;;;;4930984;29;20040;-67
2020/12/08 02:13:48;;;;;;;12.02;7.88;;;3.90;94.20;;;;;;4940197;28;20034;-66
2020/12/08 02:16:14;;;;;;;10.82;7.35;;;3.80;94.20;;;;;;4916830;28;20138;-67
2020/12/08 02:18:39;;;;;;;9.02;6.82;;;3.80;94.20;;;;;;4938354;28;20399;-67
2020/12/08 02:21:06;;;;;;;9.82;6.75;;;3.90;94.10;;;;;;4930383;29;20031;-67
2020/12/08 02:23:31;;;;;;;9.15;6.55;;;3.90;93.90;;;;;;4939632;28;20127;-67
2020/12/08 02:26:06;;;;;;;11.27;6.78;;;3.90;93.50;;;;;;4936169;28;20106;-67
2020/12/08 02:28:32;;;;;;;8.93;6.30;;;3.90;93.60;;;;;;4938595;28;20031;-67
2020/12/08 02:30:59;;;;;;;9.73;6.43;;;3.90;93.50;;;;;;4937136;28;20023;-67
2020/12/08 02:33:26;;;;;;;9.15;6.43;;;3.90;93.50;;;;;;4938599;28;20024;-67
2020/12/08 02:35:55;;;;;;;9.52;6.35;;;3.90;93.30;;;;;;4930728;28;20049;-67
2020/12/08 02:38:22;;;;;;;9.88;6.20;;;4.00;93.30;;;;;;4936520;28;20047;-66
2020/12/08 02:40:47;;;;;;;9.27;6.35;;;4.00;93.20;;;;;;4936589;28;20071;-67
2020/12/08 02:43:13;;;;;;;9.27;5.85;;;3.90;93.40;;;;;;4933205;28;20419;-68
2020/12/08 02:45:40;;;;;;;9.82;6.40;;;3.90;93.10;;;;;;4936306;29;20035;-68
2020/12/08 02:48:06;;;;;;;8.90;6.60;;;3.90;93.30;;;;;;4940264;28;20081;-68
2020/12/08 02:50:31;;;;;;;9.15;6.78;;;3.90;93.40;;;;;;4934336;28;20455;-68
2020/12/08 02:52:57;;;;;;;10.20;6.82;;;3.90;93.50;;;;;;4936078;28;20437;-67
2020/12/08 02:55:22;;;;;;;8.50;6.47;;;3.90;93.30;;;;;;4933911;29;20456;-68
2020/12/08 02:57:48;;;;;;;10.50;7.03;;;3.80;93.40;;;;;;4938253;28;20100;-68
2020/12/08 03:00:14;;;;;;;9.70;6.55;;;3.90;93.70;;;;;;4933031;28;20043;-68
2020/12/08 03:02:39;;;;;;;10.60;6.70;;;3.80;93.50;;;;;;4936759;29;20058;-68
2020/12/08 03:05:05;;;;;;;9.60;6.57;;;3.70;93.60;;;;;;4941214;28;20035;-68
2020/12/08 03:07:31;;;;;;;9.65;6.80;;;3.70;93.90;;;;;;4922266;28;20459;-68
2020/12/08 03:09:56;;;;;;;9.82;6.95;;;3.70;94.00;;;;;;4936833;28;20086;-68
2020/12/08 03:12:22;;;;;;;10.65;6.85;;;3.70;93.80;;;;;;4935968;29;20038;-68
2020/12/08 03:14:48;;;;;;;9.48;7.03;;;3.70;93.70;;;;;;4942216;28;20394;-68
2020/12/08 03:17:14;;;;;;;9.52;6.97;;;3.70;93.80;;;;;;4939299;28;20034;-67
2020/12/08 03:19:39;;;;;;;12.73;6.78;;;3.70;93.80;;;;;;4939464;28;20041;-68
2020/12/08 03:22:05;;;;;;;9.90;7.28;;;3.60;93.90;;;;;;4938583;28;20028;-68
2020/12/08 03:24:31;;;;;;;11.48;6.68;;;3.70;93.90;;;;;;4940994;28;20027;-67
2020/12/08 03:26:56;;;;;;;8.68;6.40;;;3.70;94.00;;;;;;4929575;28;20055;-67
2020/12/08 03:29:22;;;;;;;9.23;6.13;;;3.70;93.80;;;;;;4936110;28;20055;-68
2020/12/08 03:31:48;;;;;;;10.07;6.97;;;3.70;93.80;;;;;;4935525;29;20054;-67
2020/12/08 03:34:13;;;;;;;9.95;6.85;;;3.80;93.70;;;;;;4939372;28;20129;-67
2020/12/08 03:36:39;;;;;;;10.85;6.32;;;3.80;93.80;;;;;;4938374;28;20444;-68
2020/12/08 03:39:05;;;;;;;9.30;6.90;;;3.70;94.00;;;;;;4940352;28;20696;-68
2020/12/08 03:41:30;;;;;;;10.30;6.88;;;3.70;93.70;;;;;;4937166;29;20027;-68
2020/12/08 03:43:56;;;;;;;9.30;6.68;;;3.80;93.70;;;;;;4938840;28;20081;-68
2020/12/08 03:46:25;;;;;;;7.95;5.93;;;3.70;93.70;;;;;;4939934;29;20118;-68
2020/12/08 03:48:52;;;;;;;10.90;6.63;;;3.70;93.80;;;;;;4921903;28;20032;-68
2020/12/08 03:51:21;;;;;;;11.15;6.32;;;3.80;93.80;;;;;;4933705;28;20039;-67
2020/12/08 03:53:47;;;;;;;9.50;6.53;;;3.80;93.60;;;;;;4935504;28;20226;-68
2020/12/08 03:56:19;;;;;;;9.68;6.55;;;3.80;93.40;;;;;;4940616;28;20212;-68
2020/12/08 03:58:46;;;;;;;10.38;7.13;;;3.80;93.60;;;;;;4930528;28;20546;-68
2020/12/08 04:01:16;;;;;;;9.50;7.28;;;3.80;93.60;;;;;;4935228;28;20043;-68
2020/12/08 04:03:43;;;;;;;10.70;6.88;;;3.80;93.70;;;;;;4935520;28;20322;-68
2020/12/08 04:06:11;;;;;;;11.65;8.18;;;3.80;93.50;;;;;;4933458;28;20684;-68
2020/12/08 04:08:37;;;;;;;11.38;7.28;;;3.90;92.90;;;;;;4937185;28;20447;-68
2020/12/08 04:11:02;;;;;;;10.65;6.88;;;3.90;93.00;;;;;;4933086;28;20039;-68
2020/12/08 04:13:28;;;;;;;11.48;7.90;;;3.90;92.90;;;;;;4935677;28;20085;-67
2020/12/08 04:15:54;;;;;;;11.52;8.10;;;3.90;93.10;;;;;;4933011;28;20047;-68
2020/12/08 04:18:20;;;;;;;9.55;7.95;;;3.90;93.20;;;;;;4940545;28;20046;-66
2020/12/08 04:20:46;;;;;;;11.95;7.22;;;3.80;93.40;;;;;;4930350;28;20035;-67
2020/12/08 04:23:13;;;;;;;9.23;7.18;;;3.90;93.40;;;;;;4944115;28;20093;-68
2020/12/08 04:25:39;;;;;;;9.95;6.88;;;3.80;93.50;;;;;;4939652;28;20031;-67
2020/12/08 04:28:06;;;;;;;10.65;7.28;;;3.80;93.60;;;;;;4939063;28;20043;-68
2020/12/08 04:30:35;;;;;;;9.38;6.43;;;3.80;93.70;;;;;;4915423;28;20093;-68
2020/12/08 04:33:01;;;;;;;9.30;6.70;;;3.80;93.30;;;;;;4935270;28;20046;-68
2020/12/08 04:35:27;;;;;;;10.55;7.13;;;3.80;93.50;;;;;;4926502;28;20035;-68
2020/12/08 04:37:53;;;;;;;10.85;6.95;;;3.80;93.40;;;;;;4932966;28;20524;-68
2020/12/08 04:40:19;;;;;;;11.25;7.38;;;3.80;93.30;;;;;;4935817;28;20033;-68
2020/12/08 04:42:46;;;;;;;9.23;7.22;;;3.80;93.20;;;;;;4938104;29;20057;-67
2020/12/08 04:45:13;;;;;;;10.32;7.00;;;3.80;93.50;;;;;;4942658;28;20217;-68
2020/12/08 04:47:41;;;;;;;12.90;7.13;;;3.80;93.60;;;;;;4937117;28;20035;-68
2020/12/08 04:50:07;;;;;;;11.60;7.65;;;3.80;93.30;;;;;;4916834;28;20071;-67
2020/12/08 04:52:32;;;;;;;9.95;7.50;;;3.80;93.50;;;;;;4936037;28;20126;-67
2020/12/08 04:54:58;;;;;;;10.15;6.97;;;3.80;93.60;;;;;;4952827;28;20035;-68
2020/12/08 04:57:24;;;;;;;10.45;6.88;;;3.80;93.60;;;;;;4923122;28;20035;-67
2020/12/08 05:00:03;;;;;;;11.73;7.03;;;3.80;93.60;;;;;;4904090;28;20039;-68
2020/12/08 05:02:28;;;;;;;11.32;7.43;;;3.80;93.70;;;;;;4911161;28;20460;-68
2020/12/08 05:04:55;;;;;;;10.50;7.28;;;3.80;93.60;;;;;;4911442;28;20042;-68
2020/12/08 05:07:27;;;;;;;10.60;7.75;;;3.80;93.60;;;;;;4919282;28;20038;-69
2020/12/08 05:09:53;;;;;;;12.25;8.35;;;3.80;93.30;;;;;;4911960;28;20119;-68
2020/12/08 05:12:20;;;;;;;14.77;8.38;;;3.80;93.30;;;;;;4894464;29;20096;-67
2020/12/08 05:14:46;;;;;;;12.70;8.80;;;3.80;93.50;;;;;;4909186;28;20116;-68
2020/12/08 05:17:11;;;;;;;13.20;8.00;;;3.80;93.50;;;;;;4912417;28;20495;-67
2020/12/08 05:19:37;;;;;;;11.02;8.35;;;3.70;93.60;;;;;;4910742;28;20038;-68
2020/12/08 05:22:03;;;;;;;11.68;8.07;;;3.70;93.50;;;;;;4920586;28;20706;-68
2020/12/08 05:24:30;;;;;;;11.00;8.00;;;3.70;93.50;;;;;;4916587;28;20039;-67
2020/12/08 05:27:04;;;;;;;11.27;8.15;;;3.70;93.70;;;;;;4932994;28;20610;-65
2020/12/08 05:29:31;;;;;;;10.50;7.70;;;3.70;93.60;;;;;;4932516;28;20120;-67
2020/12/08 05:32:16;;;;;;;10.48;7.70;;;3.70;93.60;;;;;;4929582;29;20039;-67
2020/12/08 05:34:46;;;;;;;9.93;7.57;;;3.70;93.80;;;;;;4924314;28;20650;-68
2020/12/08 05:37:18;;;;;;;13.17;8.83;;;3.70;93.80;;;;;;4920611;28;20088;-68
2020/12/08 05:39:45;;;;;;;9.88;7.30;;;3.60;94.00;;;;;;4925333;29;20775;-68
2020/12/08 05:42:17;;;;;;;12.88;8.85;;;3.70;93.90;;;;;;4928589;28;20047;-68
2020/12/08 05:44:50;;;;;;;12.82;8.70;;;3.60;93.90;;;;;;4939555;28;20043;-68
2020/12/08 05:47:21;;;;;;;12.07;9.15;;;3.60;94.00;;;;;;4937057;28;20057;-67
2020/12/08 05:50:00;;;;;;;11.15;8.70;;;3.60;93.90;;;;;;4930588;28;20073;-68
2020/12/08 05:52:30;;;;;;;12.52;8.95;;;3.60;93.80;;;;;;4925688;28;20581;-68
2020/12/08 05:55:25;;;;;;;14.37;9.63;;;3.60;94.00;;;;;;4931657;28;20057;-68
2020/12/08 05:57:51;;;;;;;13.35;9.13;;;3.60;94.10;;;;;;4914768;28;20306;-67
2020/12/08 06:00:26;;;;;;;16.85;9.77;;;3.60;94.10;;;;;;4926580;29;20254;-68
2020/12/08 06:02:54;;;;;;;13.20;9.40;;;3.60;94.00;;;;;;4932005;28;20027;-67
2020/12/08 06:05:31;;;;;;;13.32;9.40;;;3.50;94.10;;;;;;4939475;28;20066;-67
2020/12/08 06:07:58;;;;;;;14.70;8.93;;;3.50;94.20;;;;;;4930340;28;20122;-68
2020/12/08 06:10:24;;;;;;;13.27;9.35;;;3.50;94.30;;;;;;4933969;28;20023;-68
2020/12/08 06:12:58;;;;;;;12.88;9.18;;;3.40;94.30;;;;;;4929633;29;20101;-67
2020/12/08 06:15:27;;;;;;;14.88;9.20;;;3.30;94.30;;;;;;4921775;28;20465;-68
2020/12/08 06:17:53;;;;;;;13.30;10.15;;;3.30;94.40;;;;;;4933597;28;20339;-68
2020/12/08 06:20:19;;;;;;;14.50;10.05;;;3.30;94.50;;;;;;4927811;28;20461;-69
2020/12/08 06:22:55;;;;;;;15.77;10.60;;;3.30;94.60;;;;;;4934040;28;20476;-68
2020/12/08 06:25:21;;;;;;;14.05;10.38;;;3.20;94.60;;;;;;4929270;28;20112;-68
2020/12/08 06:27:47;;;;;;;15.77;10.57;;;3.10;94.60;;;;;;4919317;28;20469;-68
2020/12/08 06:30:12;;;;;;;14.82;10.15;;;3.10;94.80;;;;;;4912505;28;20586;-69
2020/12/08 06:32:42;;;;;;;14.80;10.48;;;3.10;94.80;;;;;;4929701;28;20096;-68
2020/12/08 06:35:13;;;;;;;15.30;10.63;;;3.00;95.00;;;;;;4936126;28;20121;-68
2020/12/08 06:37:48;;;;;;;16.42;11.40;;;2.90;95.00;;;;;;4931090;28;20043;-68
2020/12/08 06:40:17;;;;;;;15.65;10.93;;;2.80;95.20;;;;;;4933814;29;20039;-68
2020/12/08 06:42:44;;;;;;;16.02;11.27;;;2.80;95.40;;;;;;4938119;29;20032;-68
2020/12/08 06:45:12;;;;;;;18.63;12.43;;;2.80;95.50;;;;;;4929497;28;20115;-67
2020/12/08 06:47:39;;;;;;;18.15;12.05;;;2.70;95.60;;;;;;4939506;28;20051;-68
2020/12/08 06:50:06;;;;;;;19.95;12.90;;;2.70;95.70;;;;;;4936229;29;20476;-68
2020/12/08 06:52:33;;;;;;;20.05;12.75;;;2.70;95.80;;;;;;4931903;28;20040;-67
2020/12/08 06:55:00;;;;;;;19.38;12.95;;;2.60;95.80;;;;;;4932241;28;20090;-68
2020/12/08 06:57:26;;;;;;;20.33;13.07;;;2.60;95.90;;;;;;4943868;28;20467;-68
2020/12/08 07:00:08;;;;;;;22.38;13.68;;;2.40;95.90;;;;;;4932875;29;20032;-68
2020/12/08 07:02:48;;;;;;;20.55;12.88;;;2.40;96.00;;;;;;4938023;28;20043;-69
2020/12/08 07:05:15;;;;;;;20.50;13.88;;;2.30;96.10;;;;;;4917565;28;20043;-68
2020/12/08 07:07:43;;;;;;;23.38;14.75;;;2.20;96.20;;;;;;4934078;28;20043;-68
2020/12/08 07:10:09;;;;;;;22.25;13.95;;;2.10;96.30;;;;;;4920508;28;20043;-67
2020/12/08 07:12:46;;;;;;;24.67;15.68;;;2.10;96.40;;;;;;4938921;29;20383;-68
2020/12/08 07:15:14;;;;;;;27.33;15.43;;;2.00;96.60;;;;;;4942642;28;20676;-68
2020/12/08 07:17:40;;;;;;;26.73;16.40;;;1.90;96.60;;;;;;4939207;28;20100;-68
2020/12/08 07:20:05;;;;;;;29.02;16.85;;;1.90;96.70;;;;;;4923520;29;20035;-68
2020/12/08 07:22:44;;;;;;;36.08;17.48;;;1.90;96.80;;;;;;4937091;28;20117;-68
2020/12/08 07:25:12;;;;;;;33.13;17.40;;;2.00;96.90;;;;;;4913982;28;20031;-67
2020/12/08 07:27:52;;;;;;;34.90;17.88;;;2.00;96.90;;;;;;4932012;28;20144;-67
2020/12/08 07:30:26;;;;;;;36.33;18.75;;;2.00;96.90;;;;;;4935771;28;20452;-68
2020/12/08 07:32:53;;;;;;;38.95;19.15;;;2.00;97.00;;;;;;4938721;29;20071;-68
2020/12/08 07:35:20;;;;;;;41.60;19.17;;;2.00;97.10;;;;;;4939560;28;20107;-66
2020/12/08 07:37:46;;;;;;;46.03;21.27;;;2.10;97.10;;;;;;4916646;28;20039;-66
2020/12/08 07:40:12;;;;;;;43.60;21.70;;;2.10;97.10;;;;;;4937033;29;20032;-66
2020/12/08 07:42:46;;;;;;;50.10;21.88;;;2.20;97.20;;;;;;4916083;28;21678;-66
2020/12/08 07:45:11;;;;;;;44.75;21.95;;;2.20;97.10;;;;;;4933036;28;20234;-66
2020/12/08 07:47:37;;;;;;;42.35;21.08;;;2.30;97.10;;;;;;4937158;28;20093;-66
2020/12/08 07:50:04;;;;;;;38.75;20.48;;;2.30;97.10;;;;;;4936761;29;20399;-66
2020/12/08 07:52:30;;;;;;;41.50;21.60;;;2.30;97.00;;;;;;4936050;28;20061;-66
2020/12/08 07:54:55;;;;;;;35.67;19.85;;;2.40;97.00;;;;;;4936619;28;20496;-66
2020/12/08 07:57:21;;;;;;;38.67;20.92;;;2.60;97.00;;;;;;4937054;28;20130;-66
2020/12/08 07:59:46;;;;;;;38.35;20.05;;;2.60;96.90;;;;;;4940354;28;20099;-66
2020/12/08 08:02:12;;;;;;;35.83;20.20;;;2.60;96.80;;;;;;4931909;29;20035;-66
2020/12/08 08:04:38;;;;;;;35.75;19.38;;;2.70;96.70;;;;;;4927695;28;20426;-66
2020/12/08 08:07:03;;;;;;;32.65;18.80;;;2.70;96.60;;;;;;4931941;28;20097;-66
2020/12/08 08:09:29;;;;;;;31.63;18.27;;;2.80;96.50;;;;;;4928636;28;20383;-65
2020/12/08 08:11:55;;;;;;;28.77;18.27;;;2.80;96.40;;;;;;4932840;28;20043;-66
2020/12/08 08:14:20;;;;;;;27.67;17.17;;;2.90;96.30;;;;;;4921159;28;20039;-66
2020/12/08 08:16:47;;;;;;;32.13;17.65;;;3.00;96.30;;;;;;4925158;28;20055;-67
2020/12/08 08:19:13;;;;;;;30.27;17.52;;;3.00;96.10;;;;;;4922919;28;20061;-66
2020/12/08 08:21:42;;;;;;;26.58;17.50;;;3.00;95.90;;;;;;4934231;29;20031;-66
2020/12/08 08:24:11;;;;;;;25.38;16.50;;;3.10;95.80;;;;;;4938146;28;20129;-66
2020/12/08 08:26:40;;;;;;;25.20;16.77;;;3.10;95.70;;;;;;4934229;28;20579;-66
2020/12/08 08:29:07;;;;;;;25.10;16.65;;;3.20;95.40;;;;;;4923523;28;20520;-66
2020/12/08 08:31:32;;;;;;;25.33;17.08;;;3.30;95.30;;;;;;4934570;28;20039;-66
2020/12/08 08:33:58;;;;;;;23.33;15.90;;;3.40;95.00;;;;;;4936800;28;20105;-66
2020/12/08 08:36:24;;;;;;;22.67;15.90;;;3.40;94.70;;;;;;4934876;28;20461;-66
2020/12/08 08:38:49;;;;;;;20.70;14.07;;;3.40;94.50;;;;;;4941202;28;20047;-66
2020/12/08 08:41:15;;;;;;;22.13;14.70;;;3.50;94.40;;;;;;4938648;28;20031;-67
2020/12/08 08:43:40;;;;;;;23.08;14.95;;;3.40;94.30;;;;;;4939160;28;20041;-67
2020/12/08 08:46:06;;;;;;;23.38;14.77;;;3.40;94.30;;;;;;4935952;28;20702;-67
2020/12/08 08:48:32;;;;;;;21.30;13.68;;;3.40;94.30;;;;;;4935965;28;20112;-66
2020/12/08 08:50:57;;;;;;;21.27;14.23;;;3.40;94.40;;;;;;4918088;29;20491;-65
2020/12/08 08:53:23;;;;;;;22.65;14.40;;;3.50;94.50;;;;;;4937839;28;20051;-67
2020/12/08 08:55:48;;;;;;;20.80;15.00;;;3.60;94.30;;;;;;4938881;28;20558;-67
2020/12/08 08:58:14;;;;;;;20.60;14.23;;;3.70;94.30;;;;;;4934277;28;20038;-67
2020/12/08 09:00:40;;;;;;;19.38;13.50;;;3.70;93.90;;;;;;4926142;28;20036;-68
2020/12/08 09:03:06;;;;;;;21.98;14.25;;;3.80;93.60;;;;;;4931643;28;20084;-67
2020/12/08 09:10:43;;;;;;;21.52;13.65;;;4.10;93.20;;;;;;5248145;23;20055;-68
2020/12/08 09:13:09;;;;;;;22.10;12.80;;;4.10;92.80;;;;;;4954527;28;20030;-69
2020/12/08 09:15:34;;;;;;;18.90;13.18;;;4.10;92.80;;;;;;4955134;28;20066;-67
2020/12/08 09:18:00;;;;;;;18.42;13.35;;;4.20;92.50;;;;;;4952161;28;20043;-66
2020/12/08 09:20:26;;;;;;;17.95;12.55;;;4.10;91.70;;;;;;4957042;28;20031;-67
2020/12/08 09:22:51;;;;;;;20.40;14.02;;;4.20;92.40;;;;;;4953298;28;20110;-67
2020/12/08 09:25:19;;;;;;;21.17;13.52;;;4.10;92.30;;;;;;4955758;28;20096;-67
2020/12/08 09:27:45;;;;;;;19.95;12.93;;;4.20;92.50;;;;;;4951162;28;20061;-68
2020/12/08 09:30:11;;;;;;;18.35;12.23;;;4.20;92.50;;;;;;4954674;28;20073;-67
2020/12/08 09:32:36;;;;;;;19.67;13.20;;;4.20;92.20;;;;;;4954194;28;20068;-67
2020/12/08 09:35:02;;;;;;;19.40;13.45;;;4.20;92.30;;;;;;4952970;28;20110;-68
2020/12/08 09:37:28;;;;;;;19.25;13.68;;;4.30;92.30;;;;;;4954328;28;20031;-69
2020/12/08 09:39:53;;;;;;;21.50;14.20;;;4.30;92.40;;;;;;4957196;28;20039;-68
2020/12/08 09:42:20;;;;;;;18.17;12.88;;;4.40;92.40;;;;;;4958789;28;20027;-67
2020/12/08 09:44:47;;;;;;;17.70;12.82;;;4.50;92.50;;;;;;4957408;28;20031;-67
2020/12/08 09:47:15;;;;;;;16.92;11.93;;;4.50;92.10;;;;;;4952842;28;20064;-68
2020/12/08 09:49:40;;;;;;;17.75;11.95;;;4.50;91.70;;;;;;4956718;28;20047;-68
2020/12/08 09:52:06;;;;;;;14.80;10.43;;;4.60;91.50;;;;;;4956133;28;20034;-67
2020/12/08 09:54:31;;;;;;;17.40;11.68;;;4.60;91.30;;;;;;4953321;28;20491;-67
2020/12/08 09:56:57;;;;;;;15.63;11.38;;;4.70;91.20;;;;;;4954799;28;20106;-67
2020/12/08 09:59:22;;;;;;;17.05;12.25;;;4.80;91.40;;;;;;4956402;28;20115;-68
2020/12/08 10:01:48;;;;;;;20.05;10.68;;;4.90;91.00;;;;;;4956256;28;20044;-67
2020/12/08 10:04:14;;;;;;;19.23;11.23;;;4.90;90.50;;;;;;4954686;28;20046;-69
2020/12/08 10:06:40;;;;;;;16.73;11.43;;;5.30;91.20;;;;;;4952993;28;20039;-70
2020/12/08 10:09:06;;;;;;;13.18;10.20;;;5.50;91.10;;;;;;4954465;28;21437;-67
2020/12/08 10:11:32;;;;;;;17.40;10.05;;;5.50;89.80;;;;;;4956563;28;20514;-67
2020/12/08 10:13:57;;;;;;;14.15;8.80;;;5.60;89.10;;;;;;4956665;28;20487;-68
2020/12/08 10:16:25;;;;;;;13.00;9.48;;;5.60;87.80;;;;;;4959440;28;20109;-69
2020/12/08 10:18:52;;;;;;;15.55;10.35;;;5.70;89.00;;;;;;4955445;28;20484;-68
2020/12/08 10:21:21;;;;;;;16.83;10.18;;;5.80;89.10;;;;;;4956582;28;20038;-68
2020/12/08 10:23:47;;;;;;;11.63;7.70;;;5.90;89.00;;;;;;4955496;28;20038;-68
2020/12/08 10:26:13;;;;;;;15.77;9.65;;;5.80;87.60;;;;;;4960307;28;20050;-67
2020/12/08 10:28:39;;;;;;;16.17;9.32;;;5.70;87.80;;;;;;4957211;28;20440;-68
2020/12/08 10:31:04;;;;;;;17.17;9.70;;;5.60;88.80;;;;;;4960964;28;20035;-67
2020/12/08 10:33:30;;;;;;;14.38;9.95;;;5.70;89.20;;;;;;4955471;28;20067;-68
2020/12/08 10:35:56;;;;;;;16.42;10.18;;;5.70;89.10;;;;;;4959079;28;20031;-69
2020/12/08 10:38:21;;;;;;;16.25;10.85;;;5.70;89.10;;;;;;4957771;28;20092;-68
2020/12/08 10:40:47;;;;;;;13.45;9.90;;;5.70;89.20;;;;;;4958807;28;20427;-68
2020/12/08 10:43:12;;;;;;;12.82;9.50;;;5.90;88.90;;;;;;4956560;28;20110;-67
2020/12/08 10:45:38;;;;;;;13.88;8.80;;;5.90;87.70;;;;;;4960090;28;20253;-68
2020/12/08 10:48:04;;;;;;;14.35;8.63;;;6.00;87.50;;;;;;4956957;28;20345;-69
2020/12/08 10:50:29;;;;;;;11.20;8.25;;;5.90;87.40;;;;;;4957647;28;20058;-70
2020/12/08 10:52:55;;;;;;;11.23;7.97;;;6.00;87.30;;;;;;4956009;28;20526;-69
2020/12/08 10:55:21;;;;;;;12.65;8.10;;;6.00;87.00;;;;;;4959679;28;20130;-69
2020/12/08 10:57:47;;;;;;;15.75;8.48;;;6.00;87.10;;;;;;4954256;28;20382;-68
2020/12/08 11:00:13;;;;;;;10.60;7.40;;;6.00;86.90;;;;;;4948909;28;20038;-70
2020/12/08 11:02:38;;;;;;;12.63;8.18;;;6.00;86.60;;;;;;4942648;28;20106;-69
2020/12/08 11:05:07;;;;;;;9.90;7.18;;;6.10;87.10;;;;;;4954577;28;20035;-68
2020/12/08 11:07:32;;;;;;;10.65;8.05;;;6.10;86.40;;;;;;4952022;28;20062;-70
2020/12/08 11:09:58;;;;;;;12.68;8.45;;;6.20;87.20;;;;;;4957681;28;20069;-70
2020/12/08 11:12:23;;;;;;;13.38;8.20;;;6.10;85.80;;;;;;4956796;28;20042;-69
2020/12/08 11:14:50;;;;;;;11.50;8.90;;;6.10;86.60;;;;;;4959188;28;20115;-69
2020/12/08 11:17:16;;;;;;;13.45;8.55;;;6.10;86.70;;;;;;4975325;28;20433;-69
2020/12/08 11:19:42;;;;;;;15.10;8.50;;;6.10;86.70;;;;;;4956023;28;20058;-69
2020/12/08 11:22:10;;;;;;;13.02;8.13;;;6.10;86.30;;;;;;4956746;28;20035;-69
2020/12/08 11:24:36;;;;;;;12.07;8.70;;;6.00;86.60;;;;;;4956493;28;20243;-68
2020/12/08 11:27:02;;;;;;;11.02;8.20;;;6.10;86.70;;;;;;4955012;28;20061;-70
2020/12/08 11:29:27;;;;;;;11.43;8.65;;;6.10;86.80;;;;;;4963123;28;20034;-69
2020/12/08 11:31:53;;;;;;;13.10;8.82;;;6.10;85.70;;;;;;4963902;28;20123;-70
2020/12/08 11:34:19;;;;;;;14.48;8.98;;;6.10;85.80;;;;;;4962572;28;20030;-70
2020/12/08 11:36:45;;;;;;;15.00;9.65;;;6.10;86.10;;;;;;4969253;28;20511;-70
2020/12/08 11:39:11;;;;;;;13.73;9.50;;;6.20;86.70;;;;;;4964760;28;20027;-68
2020/12/08 11:41:42;;;;;;;12.55;8.68;;;6.30;86.90;;;;;;4964846;28;20033;-69
2020/12/08 11:44:11;;;;;;;12.00;9.30;;;6.30;85.90;;;;;;4963542;28;20377;-70
2020/12/08 11:46:37;;;;;;;15.57;9.18;;;6.20;85.50;;;;;;4962399;28;20444;-69
2020/12/08 11:49:03;;;;;;;13.65;9.85;;;6.30;86.00;;;;;;4963699;28;20047;-69
2020/12/08 11:51:29;;;;;;;12.15;8.70;;;6.20;86.10;;;;;;4964641;28;20394;-69
2020/12/08 11:53:55;;;;;;;13.10;9.05;;;6.20;86.20;;;;;;4965094;28;20034;-69
2020/12/08 11:56:21;;;;;;;14.82;9.88;;;6.10;85.40;;;;;;4964251;28;20031;-69
2020/12/08 11:58:46;;;;;;;14.75;9.18;;;6.10;86.00;;;;;;4964399;28;20108;-69
2020/12/08 12:01:12;;;;;;;13.00;8.88;;;6.10;86.40;;;;;;4965529;28;20109;-69
2020/12/08 12:03:37;;;;;;;12.48;8.68;;;6.10;86.00;;;;;;4962453;28;20540;-69
2020/12/08 12:06:03;;;;;;;12.07;9.10;;;6.00;85.60;;;;;;4960748;28;20043;-68
2020/12/08 12:08:29;;;;;;;12.45;8.90;;;6.10;87.00;;;;;;4981097;28;20046;-69
2020/12/08 12:10:54;;;;;;;11.95;8.75;;;5.90;86.00;;;;;;4961622;28;20373;-69
2020/12/08 12:13:20;;;;;;;11.60;8.13;;;6.10;86.70;;;;;;4962890;28;20036;-69
2020/12/08 12:15:45;;;;;;;12.23;8.77;;;6.30;86.10;;;;;;4965238;28;20063;-69
2020/12/08 12:18:11;;;;;;;13.13;9.88;;;6.30;86.00;;;;;;4964427;28;20035;-69
2020/12/08 12:20:36;;;;;;;12.45;8.95;;;6.30;86.00;;;;;;4964452;28;20438;-68
2020/12/08 12:23:02;;;;;;;10.55;8.05;;;6.20;85.70;;;;;;4961870;28;20487;-67
2020/12/08 12:25:28;;;;;;;13.70;8.25;;;6.20;86.10;;;;;;4965301;28;20118;-67
2020/12/08 12:27:53;;;;;;;11.57;8.00;;;6.20;85.90;;;;;;4964301;28;20075;-67
2020/12/08 12:30:19;;;;;;;12.15;7.78;;;6.20;85.10;;;;;;4964755;28;20515;-67
2020/12/08 12:32:44;;;;;;;11.52;8.55;;;6.10;85.30;;;;;;4963964;28;20081;-66
2020/12/08 12:35:10;;;;;;;11.68;8.32;;;6.10;85.90;;;;;;4962993;28;20031;-67
2020/12/08 12:37:36;;;;;;;11.43;8.35;;;6.10;86.40;;;;;;4961133;28;20039;-66
2020/12/08 12:40:01;;;;;;;12.63;8.07;;;6.10;86.20;;;;;;4965304;28;20448;-67
2020/12/08 12:42:27;;;;;;;10.85;8.35;;;6.10;86.00;;;;;;4961407;28;20203;-67
2020/12/08 12:44:54;;;;;;;11.70;8.43;;;6.10;86.40;;;;;;4961851;28;20019;-67
2020/12/08 12:47:20;;;;;;;13.32;7.95;;;6.10;85.80;;;;;;4962714;28;20129;-67
2020/12/08 12:49:46;;;;;;;11.73;7.57;;;6.10;85.70;;;;;;4962665;28;20109;-66